Time;durP1;ratioP1;P1;durP2;ratioP2;P2;SDS_P1;SDS_P2;PMS_P1;PMS_P2;Temp;Humidity;BMP_temperature;BMP_pressure;BME280_temperature;BME280_humidity;BME280_pressure;Samples;Min_cycle;Max_cycle;Signal;HPM_P1;HPM_P2
2022/01/04 00:02:14;;;;;;;3.50;3.30;;;;;;;;;;7333961;19;153784;-15
2022/01/04 00:04:45;;;;;;;3.80;3.10;;;;;;;;;;7330211;19;162393;-15
2022/01/04 00:07:17;;;;;;;2.97;2.78;;;;;;;;;;7332275;19;162375;-16
2022/01/04 00:09:51;;;;;;;4.18;3.00;;;;;;;;;;7337291;19;154076;-15
2022/01/04 00:15:10;;;;;;;3.03;2.72;;;;;;;;;;7331135;19;161979;-16
2022/01/04 07:37:42;;;;;;;1.50;1.40;;;;;;;;;;7368782;19;132486;-14
2022/01/04 07:40:15;;;;;;;1.70;1.33;;;;;;;;;;7364660;19;153707;-15
2022/01/04 07:42:47;;;;;;;1.13;1.13;;;;;;;;;;7364286;19;161957;-16
2022/01/04 07:45:19;;;;;;;1.27;1.27;;;;;;;;;;7363403;19;162392;-14
2022/01/04 07:47:50;;;;;;;1.27;1.17;;;;;;;;;;7364644;19;153878;-15
2022/01/04 07:50:21;;;;;;;3.10;1.20;;;;;;;;;;7364943;19;153629;-15
2022/01/04 07:52:55;;;;;;;1.50;1.40;;;;;;;;;;7364532;19;161813;-16
2022/01/04 07:55:27;;;;;;;1.20;1.20;;;;;;;;;;7363821;19;162768;-15
2022/01/04 07:57:58;;;;;;;1.30;1.20;;;;;;;;;;7364510;19;154150;-14
2022/01/04 08:00:30;;;;;;;1.30;1.30;;;;;;;;;;7364534;19;153869;-15
2022/01/04 08:03:03;;;;;;;1.10;1.10;;;;;;;;;;7364082;19;162053;-16
2022/01/04 08:05:34;;;;;;;1.83;1.73;;;;;;;;;;7363957;19;162327;-15
2022/01/04 08:08:08;;;;;;;1.02;1.02;;;;;;;;;;7364227;19;153944;-15
2022/01/04 08:10:40;;;;;;;1.42;1.33;;;;;;;;;;7364375;19;153485;-15
2022/01/04 08:13:11;;;;;;;1.13;1.13;;;;;;;;;;7363945;19;162134;-15
2022/01/04 08:15:42;;;;;;;1.38;1.38;;;;;;;;;;7363293;19;162351;-15
2022/01/04 08:18:13;;;;;;;1.30;1.30;;;;;;;;;;7364246;19;153903;-14
2022/01/04 08:20:45;;;;;;;1.17;1.17;;;;;;;;;;7363806;19;153510;-15
2022/01/04 08:23:19;;;;;;;1.35;1.25;;;;;;;;;;7363426;19;161730;-16
2022/01/04 08:25:50;;;;;;;1.00;1.00;;;;;;;;;;7363208;19;162526;-15
2022/01/04 08:28:21;;;;;;;1.15;1.15;;;;;;;;;;7363473;19;154169;-14
2022/01/04 08:34:15;;;;;;;1.25;1.25;;;;;;;;;;7363311;19;162057;-15
2022/01/04 08:36:46;;;;;;;1.40;1.40;;;;;;;;;;7353544;19;162328;-15
2022/01/04 08:39:20;;;;;;;1.27;1.27;;;;;;;;;;7334812;19;153957;-16
2022/01/04 08:41:54;;;;;;;1.30;1.30;;;;;;;;;;7334084;19;153494;-16
2022/01/04 08:47:09;;;;;;;1.30;1.20;;;;;;;;;;7332480;19;162380;-15
2022/01/04 08:49:40;;;;;;;1.17;1.17;;;;;;;;;;7334258;19;154097;-15
2022/01/04 08:52:13;;;;;;;1.25;1.20;;;;;;;;;;7333511;19;153614;-15
2022/01/04 08:54:46;;;;;;;1.10;1.10;;;;;;;;;;7332740;19;162129;-15
2022/01/04 08:57:20;;;;;;;1.15;1.15;;;;;;;;;;7332102;19;162469;-14
2022/01/04 08:59:54;;;;;;;1.50;1.40;;;;;;;;;;7334272;19;153945;-14
2022/01/04 09:02:25;;;;;;;1.00;1.00;;;;;;;;;;7333983;19;153508;-14
2022/01/04 09:04:57;;;;;;;1.00;1.00;;;;;;;;;;7333258;19;162371;-17
2022/01/04 09:07:28;;;;;;;1.17;1.17;;;;;;;;;;7333505;19;162395;-16
2022/01/04 09:10:02;;;;;;;1.10;1.10;;;;;;;;;;7333545;19;154704;-15
2022/01/04 09:12:43;;;;;;;1.20;1.20;;;;;;;;;;7333911;19;153516;-15
2022/01/04 09:20:42;;;;;;;1.23;1.23;;;;;;;;;;7333407;19;154189;-15
2022/01/04 09:23:13;;;;;;;1.00;1.00;;;;;;;;;;7333388;19;153508;-16
2022/01/04 09:25:47;;;;;;;0.90;0.90;;;;;;;;;;7332947;19;162318;-16
2022/01/04 09:28:21;;;;;;;1.00;1.00;;;;;;;;;;7332946;19;162514;-16
2022/01/04 09:30:53;;;;;;;1.10;1.10;;;;;;;;;;7333061;19;153937;-14
2022/01/04 09:33:24;;;;;;;1.20;1.20;;;;;;;;;;7333182;19;153463;-17
2022/01/04 09:36:01;;;;;;;0.90;0.90;;;;;;;;;;7331522;19;161819;-14
2022/01/04 09:38:32;;;;;;;1.10;1.10;;;;;;;;;;7330066;19;162397;-15
2022/01/04 09:41:06;;;;;;;1.00;1.00;;;;;;;;;;7332886;19;153888;-14
2022/01/04 09:43:37;;;;;;;1.00;1.00;;;;;;;;;;7332990;19;153568;-14
2022/01/04 09:46:11;;;;;;;0.90;0.90;;;;;;;;;;7332588;19;161775;-14
2022/01/04 09:48:42;;;;;;;0.90;0.90;;;;;;;;;;7329955;19;162529;-15
2022/01/04 09:51:15;;;;;;;1.08;1.08;;;;;;;;;;7332592;19;154264;-15
2022/01/04 09:53:46;;;;;;;0.93;0.93;;;;;;;;;;7332425;19;153472;-15
2022/01/04 09:56:20;;;;;;;0.93;0.93;;;;;;;;;;7332019;19;161965;-13
2022/01/04 09:58:52;;;;;;;1.00;1.00;;;;;;;;;;7331861;19;162506;-15
2022/01/04 10:01:24;;;;;;;1.10;1.10;;;;;;;;;;7332072;19;153986;-16
2022/01/04 10:04:16;;;;;;;0.97;0.97;;;;;;;;;;7332073;19;153608;-15
2022/01/04 10:07:03;;;;;;;0.90;0.90;;;;;;;;;;7331381;19;162307;-14
2022/01/04 10:09:38;;;;;;;1.10;1.10;;;;;;;;;;7331268;19;162414;-14
2022/01/04 10:12:13;;;;;;;0.90;0.90;;;;;;;;;;7331941;19;153968;-16
2022/01/04 10:14:47;;;;;;;0.82;0.82;;;;;;;;;;7331823;19;153649;-14
2022/01/04 10:17:18;;;;;;;;;;;;;;;;;;7330970;19;162162;-15
2022/01/04 10:19:53;;;;;;;1.05;1.05;;;;;;;;;;7331437;19;162756;-14
2022/01/04 10:22:27;;;;;;;1.10;1.02;;;;;;;;;;7331730;19;154025;-14
2022/01/04 10:25:13;;;;;;;0.90;0.90;;;;;;;;;;7331318;19;153549;-15
2022/01/04 10:27:49;;;;;;;0.90;0.90;;;;;;;;;;7331059;19;162321;-16
2022/01/04 10:30:28;;;;;;;0.90;0.90;;;;;;;;;;7331431;19;162852;-15
2022/01/04 10:33:01;;;;;;;1.00;1.00;;;;;;;;;;7331359;19;154001;-15
2022/01/04 10:35:36;;;;;;;1.00;1.00;;;;;;;;;;7329383;19;153769;-14
2022/01/04 10:38:16;;;;;;;1.08;1.08;;;;;;;;;;7329197;19;162075;-15
2022/01/04 10:40:49;;;;;;;1.05;1.05;;;;;;;;;;7331001;19;162298;-15
2022/01/04 10:43:25;;;;;;;0.95;0.95;;;;;;;;;;7331101;19;153949;-15
2022/01/04 10:45:57;;;;;;;1.00;1.00;;;;;;;;;;7331127;19;153697;-14
2022/01/04 10:48:31;;;;;;;0.95;0.95;;;;;;;;;;7330649;19;161796;-15
2022/01/04 10:51:07;;;;;;;;;;;;;;;;;;7330982;19;162568;-15
2022/01/04 10:53:41;;;;;;;0.95;0.95;;;;;;;;;;7330749;19;154492;-15
2022/01/04 10:56:14;;;;;;;0.82;0.82;;;;;;;;;;7330547;19;153786;-16
2022/01/04 10:58:50;;;;;;;0.90;0.90;;;;;;;;;;7328488;19;161818;-15
2022/01/04 11:01:23;;;;;;;0.80;0.80;;;;;;;;;;7329589;19;162542;-14
2022/01/04 11:03:56;;;;;;;0.90;0.90;;;;;;;;;;7330592;19;153979;-14
2022/01/04 11:06:30;;;;;;;0.93;0.93;;;;;;;;;;7329634;19;153573;-14
2022/01/04 11:09:01;;;;;;;0.80;0.80;;;;;;;;;;7330165;19;161814;-14
2022/01/04 11:11:33;;;;;;;1.08;1.08;;;;;;;;;;7330095;19;162664;-15
2022/01/04 11:14:07;;;;;;;0.98;0.98;;;;;;;;;;7330405;19;154188;-15
2022/01/04 11:16:38;;;;;;;0.90;0.90;;;;;;;;;;7330317;19;153478;-15
2022/01/04 11:19:10;;;;;;;0.95;0.95;;;;;;;;;;7327490;19;161768;-14
2022/01/04 11:21:43;;;;;;;0.93;0.93;;;;;;;;;;7329776;19;162411;-15
2022/01/04 11:24:16;;;;;;;0.90;0.90;;;;;;;;;;7330048;19;153900;-14
2022/01/04 11:26:49;;;;;;;0.80;0.80;;;;;;;;;;7329805;19;153738;-16
2022/01/04 11:29:31;;;;;;;0.90;0.90;;;;;;;;;;7329391;19;161879;-16
2022/01/04 11:32:05;;;;;;;0.85;0.85;;;;;;;;;;7329544;19;162501;-16
2022/01/04 11:35:00;;;;;;;0.73;0.73;;;;;;;;;;7329833;19;153970;-15
2022/01/04 11:37:31;;;;;;;0.90;0.90;;;;;;;;;;7326663;19;153554;-16
2022/01/04 11:40:25;;;;;;;0.80;0.80;;;;;;;;;;7329104;19;162170;-17
2022/01/04 11:42:57;;;;;;;0.80;0.80;;;;;;;;;;7328953;19;162530;-16
2022/01/04 11:45:46;;;;;;;0.90;0.90;;;;;;;;;;7329505;19;153966;-15
2022/01/04 11:48:34;;;;;;;0.75;0.75;;;;;;;;;;7329309;19;153451;-14
2022/01/04 11:51:09;;;;;;;0.90;0.90;;;;;;;;;;7328624;19;162045;-14
2022/01/04 11:53:40;;;;;;;1.00;1.00;;;;;;;;;;7328853;19;162284;-16
2022/01/04 11:56:11;;;;;;;0.80;0.80;;;;;;;;;;7329021;19;153880;-15
2022/01/04 11:58:49;;;;;;;1.00;0.82;;;;;;;;;;7327668;19;153552;-15
2022/01/04 12:01:28;;;;;;;0.77;0.77;;;;;;;;;;7328518;19;161902;-15
2022/01/04 12:03:59;;;;;;;0.80;0.80;;;;;;;;;;7328504;19;162621;-14
2022/01/04 12:06:42;;;;;;;0.90;0.90;;;;;;;;;;7328628;19;154054;-15
2022/01/04 12:09:29;;;;;;;0.68;0.68;;;;;;;;;;7328104;19;154831;-15
2022/01/04 12:12:00;;;;;;;0.85;0.85;;;;;;;;;;7328848;19;161840;-14
2022/01/04 12:14:34;;;;;;;0.80;0.80;;;;;;;;;;7334903;19;162488;-14
2022/01/04 12:17:09;;;;;;;0.80;0.80;;;;;;;;;;7334224;19;154361;-14
2022/01/04 12:19:51;;;;;;;0.93;0.93;;;;;;;;;;7333571;19;153591;-15
2022/01/04 12:22:32;;;;;;;0.80;0.80;;;;;;;;;;7334937;19;162196;-15
2022/01/04 12:25:07;;;;;;;0.82;0.82;;;;;;;;;;7334743;19;162672;-14
2022/01/04 12:27:40;;;;;;;0.70;0.70;;;;;;;;;;7335045;19;153922;-15
2022/01/04 12:30:27;;;;;;;0.85;0.85;;;;;;;;;;7334719;19;153677;-15
2022/01/04 12:33:28;;;;;;;0.70;0.70;;;;;;;;;;7334412;19;161867;-15
2022/01/04 12:36:02;;;;;;;0.65;0.65;;;;;;;;;;7333041;19;162357;-15
2022/01/04 12:38:34;;;;;;;0.70;0.70;;;;;;;;;;7334129;19;153951;-15
2022/01/04 12:41:06;;;;;;;0.70;0.70;;;;;;;;;;7334502;19;153630;-14
2022/01/04 12:43:39;;;;;;;0.60;0.60;;;;;;;;;;7334238;19;161994;-15
2022/01/04 12:46:10;;;;;;;0.80;0.80;;;;;;;;;;7334113;19;162353;-15
2022/01/04 12:48:49;;;;;;;0.73;0.73;;;;;;;;;;7333255;19;153753;-16
2022/01/04 12:51:31;;;;;;;0.70;0.70;;;;;;;;;;7334398;19;153606;-15
2022/01/04 12:54:04;;;;;;;0.73;0.73;;;;;;;;;;7333819;19;161810;-15
2022/01/04 12:56:35;;;;;;;;;;;;;;;;;;7333547;19;162416;-15
2022/01/04 12:59:06;;;;;;;0.80;0.80;;;;;;;;;;7333211;19;154264;-15
2022/01/04 13:01:38;;;;;;;0.70;0.70;;;;;;;;;;7334119;19;153595;-15
2022/01/04 13:04:23;;;;;;;0.80;0.80;;;;;;;;;;7333563;19;161752;-15
2022/01/04 13:06:58;;;;;;;0.60;0.60;;;;;;;;;;7333679;19;162524;-15
2022/01/04 13:09:29;;;;;;;0.60;0.60;;;;;;;;;;7333703;19;153929;-16
2022/01/04 13:12:03;;;;;;;0.73;0.73;;;;;;;;;;7333933;19;153606;-13
2022/01/04 13:14:36;;;;;;;0.70;0.70;;;;;;;;;;7333363;19;161912;-15
2022/01/04 13:17:09;;;;;;;0.43;0.43;;;;;;;;;;7333829;19;162466;-16
2022/01/04 13:19:42;;;;;;;;;;;;;;;;;;7334772;19;154439;-16
2022/01/04 13:22:18;;;;;;;0.40;0.40;;;;;;;;;;7335517;19;153334;-16
2022/01/04 13:24:51;;;;;;;0.50;0.50;;;;;;;;;;7335885;19;161997;-16
2022/01/04 13:27:29;;;;;;;0.68;0.55;;;;;;;;;;7332717;19;162310;-16
2022/01/04 13:30:03;;;;;;;1.00;0.40;;;;;;;;;;7335558;19;153965;-14
2022/01/04 13:32:36;;;;;;;0.40;0.40;;;;;;;;;;7336221;19;153555;-15
2022/01/04 13:35:10;;;;;;;0.52;0.50;;;;;;;;;;7336418;19;161840;-14
2022/01/04 13:37:50;;;;;;;1.85;0.50;;;;;;;;;;7330045;19;162342;-15
2022/01/04 13:40:22;;;;;;;0.52;0.50;;;;;;;;;;7334918;19;154013;-17
2022/01/04 13:43:01;;;;;;;0.50;0.50;;;;;;;;;;7332687;19;153594;-14
2022/01/04 13:45:45;;;;;;;0.65;0.65;;;;;;;;;;7335325;19;162014;-14
2022/01/04 13:48:16;;;;;;;;;;;;;;;;;;7333366;19;162727;-14
2022/01/04 13:50:47;;;;;;;0.85;0.60;;;;;;;;;;7333226;19;153943;-14
2022/01/04 13:53:23;;;;;;;0.70;0.70;;;;;;;;;;7334879;19;153667;-14
2022/01/04 13:55:58;;;;;;;0.50;0.50;;;;;;;;;;7335412;19;162022;-15
2022/01/04 13:58:34;;;;;;;3.30;0.93;;;;;;;;;;7331771;19;162504;-15
2022/01/04 14:01:21;;;;;;;0.60;0.60;;;;;;;;;;7332263;19;154235;-15
2022/01/04 14:03:53;;;;;;;0.50;0.50;;;;;;;;;;7335594;19;153447;-14
2022/01/04 14:06:33;;;;;;;0.40;0.40;;;;;;;;;;7332275;19;162077;-14
2022/01/04 14:09:12;;;;;;;0.45;0.45;;;;;;;;;;7333441;19;162356;-15
2022/01/04 14:11:44;;;;;;;0.50;0.50;;;;;;;;;;7335372;19;153989;-15
2022/01/04 14:14:18;;;;;;;0.47;0.47;;;;;;;;;;7333676;19;153562;-16
2022/01/04 14:16:55;;;;;;;1.08;0.50;;;;;;;;;;7334345;19;161884;-15
2022/01/04 14:19:28;;;;;;;0.50;0.45;;;;;;;;;;7333551;19;162559;-15
2022/01/04 14:22:05;;;;;;;0.60;0.60;;;;;;;;;;7335786;19;154204;-15
2022/01/04 14:24:43;;;;;;;0.50;0.50;;;;;;;;;;7331002;19;153585;-15
2022/01/04 14:27:27;;;;;;;0.50;0.50;;;;;;;;;;7333314;19;161956;-15
2022/01/04 14:29:59;;;;;;;;;;;;;;;;;;7335212;19;162525;-16
2022/01/04 14:32:41;;;;;;;0.60;0.60;;;;;;;;;;7332182;19;154175;-16
2022/01/04 14:35:15;;;;;;;0.75;0.50;;;;;;;;;;7331695;19;153659;-14
2022/01/04 14:37:53;;;;;;;0.50;0.47;;;;;;;;;;7331850;19;161892;-14
2022/01/04 14:40:29;;;;;;;0.50;0.50;;;;;;;;;;7332112;19;162531;-15
2022/01/04 14:43:01;;;;;;;0.55;0.55;;;;;;;;;;7333156;19;154355;-14
2022/01/04 14:45:34;;;;;;;0.43;0.40;;;;;;;;;;7330214;19;154019;-15
2022/01/04 14:48:09;;;;;;;0.50;0.50;;;;;;;;;;7334053;19;162080;-15
2022/01/04 14:50:43;;;;;;;0.50;0.50;;;;;;;;;;7330889;19;162386;-16
2022/01/04 14:53:21;;;;;;;0.50;0.50;;;;;;;;;;7332391;19;154326;-15
2022/01/04 14:55:59;;;;;;;0.40;0.40;;;;;;;;;;7329247;19;153517;-15
2022/01/04 14:58:33;;;;;;;0.50;0.50;;;;;;;;;;7333760;19;162003;-15
2022/01/04 15:01:05;;;;;;;0.47;0.47;;;;;;;;;;7330154;19;162434;-15
2022/01/04 15:03:41;;;;;;;0.50;0.50;;;;;;;;;;7333192;19;154029;-16
2022/01/04 15:06:16;;;;;;;0.50;0.50;;;;;;;;;;7332992;19;153585;-16
2022/01/04 15:08:49;;;;;;;0.40;0.40;;;;;;;;;;7331235;19;162084;-16
2022/01/04 15:11:25;;;;;;;0.40;0.40;;;;;;;;;;7332163;19;162665;-15
2022/01/04 15:13:58;;;;;;;0.55;0.55;;;;;;;;;;7333721;19;153931;-16
2022/01/04 15:16:33;;;;;;;0.68;0.40;;;;;;;;;;7333530;19;153625;-15
2022/01/04 15:19:09;;;;;;;0.43;0.43;;;;;;;;;;7331670;19;161954;-16
2022/01/04 15:21:44;;;;;;;0.57;0.50;;;;;;;;;;7330602;19;162450;-16
2022/01/04 15:24:21;;;;;;;0.50;0.50;;;;;;;;;;7333969;19;153987;-16
2022/01/04 15:26:57;;;;;;;0.40;0.40;;;;;;;;;;7330968;19;154228;-15
2022/01/04 15:29:29;;;;;;;0.60;0.60;;;;;;;;;;7330689;19;162097;-16
2022/01/04 15:32:03;;;;;;;0.40;0.40;;;;;;;;;;7331115;19;162632;-14
2022/01/04 15:34:36;;;;;;;0.75;0.50;;;;;;;;;;7331671;19;154188;-17
2022/01/04 15:37:08;;;;;;;0.45;0.45;;;;;;;;;;7331462;19;153562;-15
2022/01/04 15:39:40;;;;;;;0.40;0.40;;;;;;;;;;7330562;19;161802;-15
2022/01/04 15:42:16;;;;;;;0.50;0.50;;;;;;;;;;7330359;19;162327;-15
2022/01/04 15:44:49;;;;;;;0.40;0.40;;;;;;;;;;7332902;19;153947;-16
2022/01/04 15:47:21;;;;;;;0.70;0.40;;;;;;;;;;7331862;19;153699;-15
2022/01/04 15:49:54;;;;;;;0.52;0.40;;;;;;;;;;7334736;19;161809;-16
2022/01/04 15:52:27;;;;;;;0.90;0.40;;;;;;;;;;7338382;19;162358;-16
2022/01/04 15:55:03;;;;;;;0.38;0.38;;;;;;;;;;7335813;19;153715;-16
2022/01/04 15:57:40;;;;;;;0.47;0.47;;;;;;;;;;7338433;19;154256;-16
2022/01/04 16:00:15;;;;;;;0.38;0.38;;;;;;;;;;7337727;19;161883;-16
2022/01/04 16:02:48;;;;;;;0.40;0.40;;;;;;;;;;7336324;19;162483;-15
2022/01/04 16:05:22;;;;;;;0.45;0.45;;;;;;;;;;7338997;19;154003;-15
2022/01/04 16:07:56;;;;;;;0.35;0.35;;;;;;;;;;7337331;19;153679;-16
2022/01/04 16:10:31;;;;;;;0.45;0.45;;;;;;;;;;7338192;19;162026;-17
2022/01/04 16:13:10;;;;;;;0.40;0.40;;;;;;;;;;7338641;19;162355;-15
2022/01/04 16:15:51;;;;;;;0.55;0.55;;;;;;;;;;7339292;19;153958;-15
2022/01/04 16:18:35;;;;;;;0.50;0.50;;;;;;;;;;7337692;19;153331;-16
2022/01/04 16:24:06;;;;;;;0.50;0.50;;;;;;;;;;7336638;19;162294;-16
2022/01/04 16:26:45;;;;;;;0.30;0.30;;;;;;;;;;7338181;19;153990;-14
2022/01/04 16:29:26;;;;;;;0.47;0.47;;;;;;;;;;7338048;19;153598;-15
2022/01/04 16:32:02;;;;;;;0.43;0.43;;;;;;;;;;7335888;19;163774;-15
2022/01/04 16:34:35;;;;;;;0.47;0.47;;;;;;;;;;7332096;19;162345;-15
2022/01/04 16:37:10;;;;;;;0.38;0.38;;;;;;;;;;7336529;19;153998;-16
2022/01/04 16:39:43;;;;;;;0.30;0.30;;;;;;;;;;7336760;19;153440;-16
2022/01/04 16:42:16;;;;;;;0.40;0.40;;;;;;;;;;7331995;19;161869;-15
2022/01/04 16:44:55;;;;;;;0.40;0.40;;;;;;;;;;7334158;19;162335;-16
2022/01/04 16:47:34;;;;;;;0.35;0.35;;;;;;;;;;7337512;19;153936;-15
2022/01/04 16:50:16;;;;;;;1.25;0.50;;;;;;;;;;7335988;19;153670;-16
2022/01/04 16:52:51;;;;;;;0.40;0.40;;;;;;;;;;7337052;19;162060;-14
2022/01/04 16:55:25;;;;;;;1.23;0.45;;;;;;;;;;7337650;19;163351;-14
2022/01/04 16:58:17;;;;;;;0.60;0.60;;;;;;;;;;7335134;19;154030;-15
2022/01/04 17:00:52;;;;;;;0.40;0.40;;;;;;;;;;7336915;19;153581;-16
2022/01/04 17:03:24;;;;;;;0.40;0.40;;;;;;;;;;7333964;19;161880;-16
2022/01/04 17:05:56;;;;;;;0.60;0.57;;;;;;;;;;7329289;19;162444;-15
2022/01/04 17:08:31;;;;;;;0.45;0.45;;;;;;;;;;7337090;19;153988;-14
2022/01/04 17:11:06;;;;;;;0.30;0.30;;;;;;;;;;7335281;19;153525;-15
2022/01/04 17:16:25;;;;;;;0.50;0.50;;;;;;;;;;7335052;19;162487;-15
2022/01/04 17:18:57;;;;;;;0.40;0.40;;;;;;;;;;7336296;19;153980;-16
2022/01/04 17:21:29;;;;;;;0.40;0.40;;;;;;;;;;7332704;19;154380;-15
2022/01/04 17:24:10;;;;;;;0.50;0.50;;;;;;;;;;7332571;19;161991;-15
2022/01/04 17:26:42;;;;;;;1.58;0.40;;;;;;;;;;7335587;19;162502;-16
2022/01/04 17:29:13;;;;;;;1.50;0.70;;;;;;;;;;7336497;19;154290;-15
2022/01/04 17:31:50;;;;;;;0.57;0.57;;;;;;;;;;7335464;19;153592;-15
2022/01/04 17:34:22;;;;;;;1.25;0.68;;;;;;;;;;7334091;19;162131;-16
2022/01/04 17:36:54;;;;;;;0.45;0.45;;;;;;;;;;7333777;19;162738;-17
2022/01/04 17:39:39;;;;;;;0.95;0.68;;;;;;;;;;7336706;19;154049;-15
2022/01/04 17:42:10;;;;;;;0.50;0.50;;;;;;;;;;7333634;19;153772;-16
2022/01/04 17:44:41;;;;;;;0.40;0.40;;;;;;;;;;7334499;19;161835;-17
2022/01/04 17:47:15;;;;;;;0.47;0.47;;;;;;;;;;7335275;19;162366;-16
2022/01/04 17:49:46;;;;;;;0.50;0.50;;;;;;;;;;7330541;19;154778;-15
2022/01/04 17:52:18;;;;;;;0.40;0.40;;;;;;;;;;7330634;19;153731;-15
2022/01/04 17:54:50;;;;;;;1.52;0.50;;;;;;;;;;7334006;19;161964;-15
2022/01/04 17:57:23;;;;;;;0.40;0.40;;;;;;;;;;7335624;19;162333;-16
2022/01/04 17:59:55;;;;;;;0.93;0.75;;;;;;;;;;7333175;19;154064;-16
2022/01/04 18:02:31;;;;;;;0.50;0.50;;;;;;;;;;7330186;19;153960;-15
2022/01/04 18:05:03;;;;;;;1.08;0.60;;;;;;;;;;7328806;19;162793;-15
2022/01/04 18:07:34;;;;;;;0.60;0.60;;;;;;;;;;7334298;19;162414;-15
2022/01/04 18:10:08;;;;;;;0.40;0.40;;;;;;;;;;7330690;19;153943;-15
2022/01/04 18:12:39;;;;;;;0.55;0.40;;;;;;;;;;7334158;19;153503;-15
2022/01/04 18:15:12;;;;;;;0.40;0.40;;;;;;;;;;7334780;19;161999;-15
2022/01/04 18:17:46;;;;;;;0.50;0.50;;;;;;;;;;7332668;19;162498;-16
2022/01/04 18:20:17;;;;;;;0.40;0.40;;;;;;;;;;7334678;19;154613;-15
2022/01/04 18:22:49;;;;;;;0.52;0.52;;;;;;;;;;7333252;19;153787;-15
2022/01/04 18:25:20;;;;;;;1.02;0.50;;;;;;;;;;7334449;19;161784;-15
2022/01/04 18:27:52;;;;;;;0.73;0.73;;;;;;;;;;7334970;19;162503;-16
2022/01/04 18:30:25;;;;;;;0.40;0.40;;;;;;;;;;7332557;19;153849;-15
2022/01/04 18:32:59;;;;;;;1.17;0.50;;;;;;;;;;7335304;19;154398;-16
2022/01/04 18:35:31;;;;;;;0.40;0.40;;;;;;;;;;7330621;19;161905;-15
2022/01/04 18:38:02;;;;;;;0.40;0.40;;;;;;;;;;7330247;19;162544;-15
2022/01/04 18:40:33;;;;;;;0.50;0.50;;;;;;;;;;7334720;19;154245;-14
2022/01/04 18:43:04;;;;;;;0.50;0.50;;;;;;;;;;7332720;19;153794;-15
2022/01/04 18:45:36;;;;;;;0.40;0.40;;;;;;;;;;7333992;19;161806;-16
2022/01/04 18:48:10;;;;;;;0.50;0.50;;;;;;;;;;7334701;19;162752;-15
2022/01/04 18:50:42;;;;;;;0.47;0.45;;;;;;;;;;7332467;19;154113;-15
2022/01/04 18:53:13;;;;;;;0.40;0.40;;;;;;;;;;7333384;19;153519;-15
2022/01/04 18:55:44;;;;;;;0.40;0.40;;;;;;;;;;7329037;19;162032;-15
2022/01/04 18:58:16;;;;;;;0.40;0.40;;;;;;;;;;7331890;19;162468;-15
2022/01/04 19:00:47;;;;;;;0.43;0.43;;;;;;;;;;7333452;19;154030;-15
2022/01/04 19:03:21;;;;;;;0.40;0.40;;;;;;;;;;7332561;19;153606;-15
2022/01/04 19:05:52;;;;;;;0.73;0.65;;;;;;;;;;7332806;19;162144;-15
2022/01/04 19:08:26;;;;;;;0.50;0.50;;;;;;;;;;7332423;19;162370;-18
2022/01/04 19:10:58;;;;;;;0.50;0.50;;;;;;;;;;7332026;19;154005;-15
2022/01/04 19:13:29;;;;;;;0.40;0.40;;;;;;;;;;7331760;19;153553;-15
2022/01/04 19:16:00;;;;;;;0.57;0.47;;;;;;;;;;7332951;19;161801;-16
2022/01/04 19:18:35;;;;;;;0.40;0.40;;;;;;;;;;7331331;19;162559;-16
2022/01/04 19:21:08;;;;;;;0.50;0.50;;;;;;;;;;7333063;19;154013;-15
2022/01/04 19:23:39;;;;;;;0.88;0.40;;;;;;;;;;7332185;19;153801;-16
2022/01/04 19:26:11;;;;;;;0.40;0.40;;;;;;;;;;7333022;19;162168;-15
2022/01/04 19:28:42;;;;;;;0.43;0.43;;;;;;;;;;7329093;19;162451;-15
2022/01/04 19:31:22;;;;;;;0.50;0.50;;;;;;;;;;7331628;19;154011;-15
2022/01/04 19:36:44;;;;;;;4.93;0.63;;;;;;;;;;7330191;19;162049;-15
2022/01/04 19:39:16;;;;;;;0.68;0.38;;;;;;;;;;7331531;19;162358;-16
2022/01/04 19:41:49;;;;;;;0.73;0.40;;;;;;;;;;7331319;19;154027;-17
2022/01/04 19:44:21;;;;;;;0.40;0.40;;;;;;;;;;7330086;19;153550;-15
2022/01/04 19:46:54;;;;;;;0.40;0.40;;;;;;;;;;7328474;19;161789;-16
2022/01/04 19:49:28;;;;;;;0.73;0.40;;;;;;;;;;7330840;19;162356;-15
2022/01/04 19:51:59;;;;;;;0.40;0.40;;;;;;;;;;7332237;19;154044;-16
2022/01/04 19:54:40;;;;;;;0.98;0.80;;;;;;;;;;7333064;19;153608;-16
2022/01/04 19:57:19;;;;;;;5.78;3.25;;;;;;;;;;7330399;19;162268;-15
2022/01/04 19:59:50;;;;;;;6.65;4.22;;;;;;;;;;7331250;19;162691;-15
2022/01/04 20:02:23;;;;;;;9.15;4.80;;;;;;;;;;7330784;19;154017;-16
2022/01/04 20:04:57;;;;;;;9.57;5.05;;;;;;;;;;7329811;19;153709;-15
2022/01/04 20:07:30;;;;;;;8.02;4.40;;;;;;;;;;7331355;19;161971;-15
2022/01/04 20:10:03;;;;;;;7.97;3.58;;;;;;;;;;7331099;19;162364;-16
2022/01/04 20:12:36;;;;;;;3.85;2.67;;;;;;;;;;7332220;19;154221;-15
2022/01/04 20:15:09;;;;;;;5.80;2.92;;;;;;;;;;7329243;19;153763;-14
2022/01/04 20:17:40;;;;;;;5.53;2.88;;;;;;;;;;7330088;19;161772;-16
2022/01/04 20:20:14;;;;;;;4.60;2.78;;;;;;;;;;7330766;19;162397;-18
2022/01/04 20:22:46;;;;;;;4.82;2.90;;;;;;;;;;7328662;19;154178;-17
2022/01/04 20:25:17;;;;;;;5.10;2.88;;;;;;;;;;7329388;19;153577;-15
2022/01/04 20:27:48;;;;;;;5.80;3.20;;;;;;;;;;7330339;19;161931;-15
2022/01/04 20:30:20;;;;;;;4.95;2.80;;;;;;;;;;7330537;19;162504;-15
2022/01/04 20:32:52;;;;;;;4.45;2.72;;;;;;;;;;7331331;19;154192;-16
2022/01/04 20:35:37;;;;;;;4.28;2.58;;;;;;;;;;7337912;19;153479;-16
2022/01/04 20:38:08;;;;;;;5.57;2.88;;;;;;;;;;7336852;19;162156;-16
2022/01/04 20:40:42;;;;;;;3.45;2.40;;;;;;;;;;7337152;19;162404;-15
2022/01/04 20:43:19;;;;;;;4.63;2.33;;;;;;;;;;7337582;19;154033;-16
2022/01/04 20:45:55;;;;;;;3.20;2.05;;;;;;;;;;7333975;19;153531;-15
2022/01/04 20:48:29;;;;;;;4.43;2.58;;;;;;;;;;7335473;19;162180;-16
2022/01/04 20:51:06;;;;;;;3.47;2.65;;;;;;;;;;7336601;19;162364;-16
2022/01/04 20:53:37;;;;;;;4.13;2.55;;;;;;;;;;7336596;19;154018;-15
2022/01/04 20:56:09;;;;;;;3.15;1.80;;;;;;;;;;7336993;19;153595;-16
2022/01/04 20:58:42;;;;;;;3.75;2.40;;;;;;;;;;7336354;19;161780;-15
2022/01/04 21:01:18;;;;;;;2.97;2.05;;;;;;;;;;7336803;19;162343;-15
2022/01/04 21:03:49;;;;;;;2.67;2.17;;;;;;;;;;7337009;19;154265;-15
2022/01/04 21:06:24;;;;;;;2.60;1.80;;;;;;;;;;7332941;19;153568;-15
2022/01/04 21:09:05;;;;;;;2.53;1.80;;;;;;;;;;7335200;19;161944;-17
2022/01/04 21:11:41;;;;;;;1.83;1.70;;;;;;;;;;7335645;19;162421;-16
2022/01/04 21:14:13;;;;;;;2.33;1.77;;;;;;;;;;7336619;19;154110;-17
2022/01/04 21:16:46;;;;;;;2.88;1.90;;;;;;;;;;7334824;19;153531;-15
2022/01/04 21:19:20;;;;;;;2.17;1.30;;;;;;;;;;7335697;19;161989;-16
2022/01/04 21:21:59;;;;;;;3.17;1.60;;;;;;;;;;7332133;19;162788;-18
2022/01/04 21:24:35;;;;;;;2.42;1.70;;;;;;;;;;7335378;19;154612;-16
2022/01/04 21:27:08;;;;;;;3.72;1.70;;;;;;;;;;7336125;19;153782;-15
2022/01/04 21:29:39;;;;;;;1.67;1.45;;;;;;;;;;7336552;19;161796;-15
2022/01/04 21:32:11;;;;;;;1.92;1.38;;;;;;;;;;7335533;19;162336;-15
2022/01/04 21:34:43;;;;;;;1.30;1.20;;;;;;;;;;7336604;19;153852;-15
2022/01/04 21:37:16;;;;;;;1.42;1.30;;;;;;;;;;7335106;19;153490;-16
2022/01/04 21:39:48;;;;;;;1.27;1.17;;;;;;;;;;7335018;19;162097;-16
2022/01/04 21:42:22;;;;;;;2.38;1.60;;;;;;;;;;7334021;19;162515;-16
2022/01/04 21:44:55;;;;;;;1.60;1.48;;;;;;;;;;7333982;19;153966;-17
2022/01/04 21:47:27;;;;;;;1.85;1.23;;;;;;;;;;7335680;19;153550;-15
2022/01/04 21:49:58;;;;;;;2.28;1.50;;;;;;;;;;7333913;19;162060;-15
2022/01/04 21:52:32;;;;;;;1.73;1.50;;;;;;;;;;7332590;19;162319;-15
2022/01/04 21:55:05;;;;;;;1.10;1.00;;;;;;;;;;7334998;19;154001;-14
2022/01/04 21:57:37;;;;;;;2.75;1.60;;;;;;;;;;7336216;19;153624;-15
2022/01/04 22:00:12;;;;;;;1.65;1.40;;;;;;;;;;7333750;19;161994;-15
2022/01/04 22:02:44;;;;;;;2.38;1.52;;;;;;;;;;7335344;19;162356;-16
2022/01/04 22:05:16;;;;;;;2.13;1.67;;;;;;;;;;7333734;19;154057;-15
2022/01/04 22:07:52;;;;;;;1.20;1.10;;;;;;;;;;7334218;19;153748;-14
2022/01/04 22:10:24;;;;;;;1.25;1.15;;;;;;;;;;7332096;19;161881;-16
2022/01/04 22:12:56;;;;;;;1.15;1.10;;;;;;;;;;7333157;19;162407;-14
2022/01/04 22:15:27;;;;;;;1.40;1.20;;;;;;;;;;7334412;19;154834;-16
2022/01/04 22:17:58;;;;;;;1.48;1.35;;;;;;;;;;7333431;19;153857;-14
2022/01/04 22:20:29;;;;;;;2.15;1.50;;;;;;;;;;7333469;19;161965;-14
2022/01/04 22:23:03;;;;;;;1.40;1.30;;;;;;;;;;7334296;19;162605;-16
2022/01/04 22:25:35;;;;;;;1.95;1.50;;;;;;;;;;7331887;19;154151;-16
2022/01/04 22:28:07;;;;;;;1.30;1.20;;;;;;;;;;7333311;19;153506;-16
2022/01/04 22:30:39;;;;;;;1.63;1.33;;;;;;;;;;7333944;19;162079;-15
2022/01/04 22:33:11;;;;;;;1.00;1.00;;;;;;;;;;7334265;19;162562;-15
2022/01/04 22:35:42;;;;;;;1.10;1.00;;;;;;;;;;7333762;19;153976;-15
2022/01/04 22:38:17;;;;;;;1.40;1.30;;;;;;;;;;7334269;19;153829;-14
2022/01/04 22:40:48;;;;;;;1.58;1.30;;;;;;;;;;7333879;19;161935;-15
2022/01/04 22:43:19;;;;;;;1.60;1.17;;;;;;;;;;7332986;19;162546;-15
2022/01/04 22:45:51;;;;;;;1.60;1.35;;;;;;;;;;7333441;19;154044;-15
2022/01/04 22:48:23;;;;;;;1.55;1.30;;;;;;;;;;7334240;19;153741;-15
2022/01/04 22:50:54;;;;;;;4.25;1.40;;;;;;;;;;7332280;19;162012;-15
2022/01/04 22:53:28;;;;;;;1.30;1.15;;;;;;;;;;7332702;19;162370;-15
2022/01/04 22:55:59;;;;;;;1.23;1.13;;;;;;;;;;7332505;19;153996;-15